sensor_id;sensor_type;location;lat;lon;timestamp;temperature;humidity
75372;HTU21D;63956;52.006;5.878;2022-11-20T00:02:03;0.15;67.59
75372;HTU21D;63956;52.006;5.878;2022-11-20T00:04:32;0.15;67.60
75372;HTU21D;63956;52.006;5.878;2022-11-20T00:07:01;0.14;67.64
75372;HTU21D;63956;52.006;5.878;2022-11-20T00:09:30;0.13;67.62
75372;HTU21D;63956;52.006;5.878;2022-11-20T00:12:02;0.09;67.45
75372;HTU21D;63956;52.006;5.878;2022-11-20T00:14:31;0.06;67.49
75372;HTU21D;63956;52.006;5.878;2022-11-20T00:17:01;0.04;67.64
75372;HTU21D;63956;52.006;5.878;2022-11-20T00:19:30;0.05;67.74
75372;HTU21D;63956;52.006;5.878;2022-11-20T00:21:59;0.03;67.73
75372;HTU21D;63956;52.006;5.878;2022-11-20T00:24:28;0.04;67.68
75372;HTU21D;63956;52.006;5.878;2022-11-20T00:26:57;-0.00;67.68
75372;HTU21D;63956;52.006;5.878;2022-11-20T00:29:29;-0.01;67.62
75372;HTU21D;63956;52.006;5.878;2022-11-20T00:31:58;-0.02;67.48
75372;HTU21D;63956;52.006;5.878;2022-11-20T00:34:27;-0.06;67.65
75372;HTU21D;63956;52.006;5.878;2022-11-20T00:36:56;-0.07;67.72
75372;HTU21D;63956;52.006;5.878;2022-11-20T00:39:25;-0.08;67.73
75372;HTU21D;63956;52.006;5.878;2022-11-20T00:41:54;-0.10;67.75
75372;HTU21D;63956;52.006;5.878;2022-11-20T00:44:23;-0.12;67.82
75372;HTU21D;63956;52.006;5.878;2022-11-20T00:46:55;-0.13;67.83
75372;HTU21D;63956;52.006;5.878;2022-11-20T00:49:24;-0.15;67.84
75372;HTU21D;63956;52.006;5.878;2022-11-20T00:51:53;-0.20;67.88
75372;HTU21D;63956;52.006;5.878;2022-11-20T00:54:22;-0.20;67.96
75372;HTU21D;63956;52.006;5.878;2022-11-20T00:56:52;-0.22;67.95
75372;HTU21D;63956;52.006;5.878;2022-11-20T00:59:22;-0.22;67.70
75372;HTU21D;63956;52.006;5.878;2022-11-20T01:01:51;-0.25;67.78
75372;HTU21D;63956;52.006;5.878;2022-11-20T01:04:22;-0.24;67.78
75372;HTU21D;63956;52.006;5.878;2022-11-20T01:06:52;-0.25;67.81
75372;HTU21D;63956;52.006;5.878;2022-11-20T01:09:21;-0.29;67.84
75372;HTU21D;63956;52.006;5.878;2022-11-20T01:11:50;-0.31;67.71
75372;HTU21D;63956;52.006;5.878;2022-11-20T01:14:20;-0.38;67.54
75372;HTU21D;63956;52.006;5.878;2022-11-20T01:16:50;-0.45;67.80
75372;HTU21D;63956;52.006;5.878;2022-11-20T01:19:23;-0.46;67.94
75372;HTU21D;63956;52.006;5.878;2022-11-20T01:21:53;-0.45;67.94
75372;HTU21D;63956;52.006;5.878;2022-11-20T01:24:23;-0.46;67.92
75372;HTU21D;63956;52.006;5.878;2022-11-20T01:26:52;-0.50;67.73
75372;HTU21D;63956;52.006;5.878;2022-11-20T01:29:23;-0.53;67.70
75372;HTU21D;63956;52.006;5.878;2022-11-20T01:31:52;-0.56;67.81
75372;HTU21D;63956;52.006;5.878;2022-11-20T01:34:24;-0.53;67.74
75372;HTU21D;63956;52.006;5.878;2022-11-20T01:36:53;-0.54;67.68
75372;HTU21D;63956;52.006;5.878;2022-11-20T01:39:24;-0.57;67.78
75372;HTU21D;63956;52.006;5.878;2022-11-20T01:41:55;-0.60;67.75
75372;HTU21D;63956;52.006;5.878;2022-11-20T01:44:49;-0.62;67.81
75372;HTU21D;63956;52.006;5.878;2022-11-20T01:47:23;-0.61;67.80
75372;HTU21D;63956;52.006;5.878;2022-11-20T01:49:58;-0.66;67.74
75372;HTU21D;63956;52.006;5.878;2022-11-20T01:52:32;-0.66;67.78
75372;HTU21D;63956;52.006;5.878;2022-11-20T01:55:06;-0.66;67.78
75372;HTU21D;63956;52.006;5.878;2022-11-20T01:57:36;-0.68;67.80
75372;HTU21D;63956;52.006;5.878;2022-11-20T02:00:09;-0.72;67.85
75372;HTU21D;63956;52.006;5.878;2022-11-20T02:02:39;-0.71;67.85
75372;HTU21D;63956;52.006;5.878;2022-11-20T02:05:19;-0.74;67.90
75372;HTU21D;63956;52.006;5.878;2022-11-20T02:07:51;-0.71;67.75
75372;HTU21D;63956;52.006;5.878;2022-11-20T02:10:21;-0.73;67.77
75372;HTU21D;63956;52.006;5.878;2022-11-20T02:12:50;-0.76;67.81
75372;HTU21D;63956;52.006;5.878;2022-11-20T02:15:33;-0.80;67.83
75372;HTU21D;63956;52.006;5.878;2022-11-20T02:18:02;-0.79;67.79
75372;HTU21D;63956;52.006;5.878;2022-11-20T02:20:34;-0.84;68.02
75372;HTU21D;63956;52.006;5.878;2022-11-20T02:23:06;-0.82;68.04
75372;HTU21D;63956;52.006;5.878;2022-11-20T02:25:41;-0.82;68.01
75372;HTU21D;63956;52.006;5.878;2022-11-20T02:28:11;-0.82;68.01
75372;HTU21D;63956;52.006;5.878;2022-11-20T02:30:40;-0.82;68.02
75372;HTU21D;63956;52.006;5.878;2022-11-20T02:33:09;-0.80;68.20
75372;HTU21D;63956;52.006;5.878;2022-11-20T02:35:43;-0.82;68.03
75372;HTU21D;63956;52.006;5.878;2022-11-20T02:38:13;-0.80;68.02
75372;HTU21D;63956;52.006;5.878;2022-11-20T02:40:45;-0.80;68.06
75372;HTU21D;63956;52.006;5.878;2022-11-20T02:43:16;-0.81;68.01
75372;HTU21D;63956;52.006;5.878;2022-11-20T02:45:45;-0.81;68.08
75372;HTU21D;63956;52.006;5.878;2022-11-20T02:48:14;-0.82;68.10
75372;HTU21D;63956;52.006;5.878;2022-11-20T02:50:43;-0.82;68.10
75372;HTU21D;63956;52.006;5.878;2022-11-20T02:53:12;-0.81;68.06
75372;HTU21D;63956;52.006;5.878;2022-11-20T02:55:41;-0.82;68.07
75372;HTU21D;63956;52.006;5.878;2022-11-20T02:58:13;-0.82;68.09
75372;HTU21D;63956;52.006;5.878;2022-11-20T03:00:42;-0.82;68.18
75372;HTU21D;63956;52.006;5.878;2022-11-20T03:03:11;-0.84;68.16
75372;HTU21D;63956;52.006;5.878;2022-11-20T03:05:40;-0.85;68.18
75372;HTU21D;63956;52.006;5.878;2022-11-20T03:08:09;-0.82;68.04
75372;HTU21D;63956;52.006;5.878;2022-11-20T03:10:38;-0.87;68.12
75372;HTU21D;63956;52.006;5.878;2022-11-20T03:13:07;-0.86;68.13
75372;HTU21D;63956;52.006;5.878;2022-11-20T03:15:39;-0.89;67.94
75372;HTU21D;63956;52.006;5.878;2022-11-20T03:18:08;-0.96;67.91
75372;HTU21D;63956;52.006;5.878;2022-11-20T03:20:39;-0.98;67.94
75372;HTU21D;63956;52.006;5.878;2022-11-20T03:23:08;-1.01;68.18
75372;HTU21D;63956;52.006;5.878;2022-11-20T03:25:37;-1.00;68.17
75372;HTU21D;63956;52.006;5.878;2022-11-20T03:28:07;-1.04;68.20
75372;HTU21D;63956;52.006;5.878;2022-11-20T03:30:36;-1.05;68.19
75372;HTU21D;63956;52.006;5.878;2022-11-20T03:33:07;-1.05;68.07
75372;HTU21D;63956;52.006;5.878;2022-11-20T03:35:36;-1.05;68.10
75372;HTU21D;63956;52.006;5.878;2022-11-20T03:38:05;-1.05;68.09
75372;HTU21D;63956;52.006;5.878;2022-11-20T03:40:35;-1.05;68.05
75372;HTU21D;63956;52.006;5.878;2022-11-20T03:43:04;-1.05;68.07
75372;HTU21D;63956;52.006;5.878;2022-11-20T03:45:33;-1.05;68.04
75372;HTU21D;63956;52.006;5.878;2022-11-20T03:48:02;-1.04;68.02
75372;HTU21D;63956;52.006;5.878;2022-11-20T03:50:34;-1.01;67.90
75372;HTU21D;63956;52.006;5.878;2022-11-20T03:53:03;-1.01;67.85
75372;HTU21D;63956;52.006;5.878;2022-11-20T03:55:32;-1.04;67.94
75372;HTU21D;63956;52.006;5.878;2022-11-20T03:58:01;-1.05;68.01
75372;HTU21D;63956;52.006;5.878;2022-11-20T04:00:30;-1.06;68.09
75372;HTU21D;63956;52.006;5.878;2022-11-20T04:03:00;-1.05;68.12
75372;HTU21D;63956;52.006;5.878;2022-11-20T04:05:29;-1.08;68.24
75372;HTU21D;63956;52.006;5.878;2022-11-20T04:08:00;-1.09;68.24
75372;HTU21D;63956;52.006;5.878;2022-11-20T04:10:30;-1.06;68.13
75372;HTU21D;63956;52.006;5.878;2022-11-20T04:12:59;-1.06;68.11
75372;HTU21D;63956;52.006;5.878;2022-11-20T04:15:28;-1.04;68.14
75372;HTU21D;63956;52.006;5.878;2022-11-20T04:17:57;-1.05;68.07
75372;HTU21D;63956;52.006;5.878;2022-11-20T04:20:26;-1.09;68.28
75372;HTU21D;63956;52.006;5.878;2022-11-20T04:22:55;-1.08;68.21
75372;HTU21D;63956;52.006;5.878;2022-11-20T04:25:27;-1.11;68.25
75372;HTU21D;63956;52.006;5.878;2022-11-20T04:27:56;-1.09;68.19
75372;HTU21D;63956;52.006;5.878;2022-11-20T04:30:25;-1.13;67.98
75372;HTU21D;63956;52.006;5.878;2022-11-20T04:32:54;-1.16;68.20
75372;HTU21D;63956;52.006;5.878;2022-11-20T04:35:23;-1.18;68.26
75372;HTU21D;63956;52.006;5.878;2022-11-20T04:37:53;-1.18;68.19
75372;HTU21D;63956;52.006;5.878;2022-11-20T04:40:22;-1.19;68.20
75372;HTU21D;63956;52.006;5.878;2022-11-20T04:42:53;-1.20;68.22
75372;HTU21D;63956;52.006;5.878;2022-11-20T04:45:23;-1.20;68.23
75372;HTU21D;63956;52.006;5.878;2022-11-20T04:47:52;-1.21;68.28
75372;HTU21D;63956;52.006;5.878;2022-11-20T04:50:21;-1.17;68.10
75372;HTU21D;63956;52.006;5.878;2022-11-20T04:52:50;-1.14;67.97
75372;HTU21D;63956;52.006;5.878;2022-11-20T04:55:19;-1.17;68.06
75372;HTU21D;63956;52.006;5.878;2022-11-20T04:57:49;-1.15;68.07
75372;HTU21D;63956;52.006;5.878;2022-11-20T05:00:22;-1.18;68.15
75372;HTU21D;63956;52.006;5.878;2022-11-20T05:02:51;-1.18;68.18
75372;HTU21D;63956;52.006;5.878;2022-11-20T05:05:20;-1.17;68.13
75372;HTU21D;63956;52.006;5.878;2022-11-20T05:07:49;-1.17;68.10
75372;HTU21D;63956;52.006;5.878;2022-11-20T05:10:18;-1.18;68.17
75372;HTU21D;63956;52.006;5.878;2022-11-20T05:12:47;-1.19;68.20
75372;HTU21D;63956;52.006;5.878;2022-11-20T05:15:16;-1.17;68.15
75372;HTU21D;63956;52.006;5.878;2022-11-20T05:17:50;-1.23;68.01
75372;HTU21D;63956;52.006;5.878;2022-11-20T05:20:20;-1.26;68.17
75372;HTU21D;63956;52.006;5.878;2022-11-20T05:22:49;-1.27;68.17
75372;HTU21D;63956;52.006;5.878;2022-11-20T05:25:18;-1.28;67.94
75372;HTU21D;63956;52.006;5.878;2022-11-20T05:27:47;-1.34;68.07
75372;HTU21D;63956;52.006;5.878;2022-11-20T05:30:16;-1.35;68.25
75372;HTU21D;63956;52.006;5.878;2022-11-20T05:32:45;-1.36;68.33
75372;HTU21D;63956;52.006;5.878;2022-11-20T05:35:17;-1.34;68.28
75372;HTU21D;63956;52.006;5.878;2022-11-20T05:37:46;-1.33;68.26
75372;HTU21D;63956;52.006;5.878;2022-11-20T05:40:15;-1.32;68.17
75372;HTU21D;63956;52.006;5.878;2022-11-20T05:42:44;-1.34;68.16
75372;HTU21D;63956;52.006;5.878;2022-11-20T05:45:13;-1.34;67.99
75372;HTU21D;63956;52.006;5.878;2022-11-20T05:47:42;-1.39;68.00
75372;HTU21D;63956;52.006;5.878;2022-11-20T05:50:12;-1.39;68.17
75372;HTU21D;63956;52.006;5.878;2022-11-20T05:52:44;-1.43;68.24
75372;HTU21D;63956;52.006;5.878;2022-11-20T05:55:13;-1.42;68.13
75372;HTU21D;63956;52.006;5.878;2022-11-20T05:57:42;-1.45;67.94
75372;HTU21D;63956;52.006;5.878;2022-11-20T06:02:42;-1.50;68.12
75372;HTU21D;63956;52.006;5.878;2022-11-20T06:05:11;-1.50;68.20
75372;HTU21D;63956;52.006;5.878;2022-11-20T06:07:40;-1.55;68.23
75372;HTU21D;63956;52.006;5.878;2022-11-20T06:10:12;-1.57;68.36
75372;HTU21D;63956;52.006;5.878;2022-11-20T06:12:41;-1.56;68.33
75372;HTU21D;63956;52.006;5.878;2022-11-20T06:15:10;-1.57;68.27
75372;HTU21D;63956;52.006;5.878;2022-11-20T06:17:39;-1.58;68.27
75372;HTU21D;63956;52.006;5.878;2022-11-20T06:20:09;-1.62;68.26
75372;HTU21D;63956;52.006;5.878;2022-11-20T06:22:38;-1.61;68.30
75372;HTU21D;63956;52.006;5.878;2022-11-20T06:25:10;-1.60;68.27
75372;HTU21D;63956;52.006;5.878;2022-11-20T06:27:40;-1.56;68.17
75372;HTU21D;63956;52.006;5.878;2022-11-20T06:30:10;-1.58;68.17
75372;HTU21D;63956;52.006;5.878;2022-11-20T06:32:39;-1.55;68.15
75372;HTU21D;63956;52.006;5.878;2022-11-20T06:35:09;-1.56;68.20
75372;HTU21D;63956;52.006;5.878;2022-11-20T06:37:38;-1.54;68.20
75372;HTU21D;63956;52.006;5.878;2022-11-20T06:40:11;-1.54;68.20
75372;HTU21D;63956;52.006;5.878;2022-11-20T06:42:41;-1.54;68.19
75372;HTU21D;63956;52.006;5.878;2022-11-20T06:45:10;-1.52;68.17
75372;HTU21D;63956;52.006;5.878;2022-11-20T06:47:39;-1.49;68.13
75372;HTU21D;63956;52.006;5.878;2022-11-20T06:50:08;-1.49;68.19
75372;HTU21D;63956;52.006;5.878;2022-11-20T06:52:37;-1.50;68.20
75372;HTU21D;63956;52.006;5.878;2022-11-20T06:55:07;-1.50;68.23
75372;HTU21D;63956;52.006;5.878;2022-11-20T06:57:39;-1.48;68.29
75372;HTU21D;63956;52.006;5.878;2022-11-20T07:00:10;-1.48;68.20
75372;HTU21D;63956;52.006;5.878;2022-11-20T07:02:40;-1.50;68.23
75372;HTU21D;63956;52.006;5.878;2022-11-20T07:05:09;-1.46;68.21
75372;HTU21D;63956;52.006;5.878;2022-11-20T07:07:38;-1.47;68.19
75372;HTU21D;63956;52.006;5.878;2022-11-20T07:10:08;-1.44;68.18
75372;HTU21D;63956;52.006;5.878;2022-11-20T07:12:40;-1.41;68.18
75372;HTU21D;63956;52.006;5.878;2022-11-20T07:15:09;-1.39;68.13
75372;HTU21D;63956;52.006;5.878;2022-11-20T07:17:38;-1.34;68.13
75372;HTU21D;63956;52.006;5.878;2022-11-20T07:20:09;-1.32;68.09
75372;HTU21D;63956;52.006;5.878;2022-11-20T07:22:38;-1.28;68.07
75372;HTU21D;63956;52.006;5.878;2022-11-20T07:25:09;-1.25;68.07
75372;HTU21D;63956;52.006;5.878;2022-11-20T07:27:40;-1.21;68.07
75372;HTU21D;63956;52.006;5.878;2022-11-20T07:30:11;-1.16;68.02
75372;HTU21D;63956;52.006;5.878;2022-11-20T07:32:40;-1.16;68.02
75372;HTU21D;63956;52.006;5.878;2022-11-20T07:35:09;-1.14;68.01
75372;HTU21D;63956;52.006;5.878;2022-11-20T07:37:38;-1.11;68.01
75372;HTU21D;63956;52.006;5.878;2022-11-20T07:40:08;-1.10;68.04
75372;HTU21D;63956;52.006;5.878;2022-11-20T07:42:47;-1.05;68.09
75372;HTU21D;63956;52.006;5.878;2022-11-20T07:45:16;-1.01;68.12
75372;HTU21D;63956;52.006;5.878;2022-11-20T07:47:45;-0.98;68.15
75372;HTU21D;63956;52.006;5.878;2022-11-20T07:50:14;-0.94;68.09
75372;HTU21D;63956;52.006;5.878;2022-11-20T07:52:44;-0.90;68.20
75372;HTU21D;63956;52.006;5.878;2022-11-20T07:55:13;-0.86;68.17
75372;HTU21D;63956;52.006;5.878;2022-11-20T07:57:45;-0.75;67.86
75372;HTU21D;63956;52.006;5.878;2022-11-20T08:00:15;-0.71;67.77
75372;HTU21D;63956;52.006;5.878;2022-11-20T08:02:44;-0.70;67.83
75372;HTU21D;63956;52.006;5.878;2022-11-20T08:05:13;-0.67;67.96
75372;HTU21D;63956;52.006;5.878;2022-11-20T08:07:43;-0.64;68.02
75372;HTU21D;63956;52.006;5.878;2022-11-20T08:10:13;-0.55;67.90
75372;HTU21D;63956;52.006;5.878;2022-11-20T08:12:50;-0.45;67.81
75372;HTU21D;63956;52.006;5.878;2022-11-20T08:15:31;-0.34;67.61
75372;HTU21D;63956;52.006;5.878;2022-11-20T08:18:02;-0.27;67.62
75372;HTU21D;63956;52.006;5.878;2022-11-20T08:20:32;-0.21;67.76
75372;HTU21D;63956;52.006;5.878;2022-11-20T08:23:03;-0.12;67.73
75372;HTU21D;63956;52.006;5.878;2022-11-20T08:25:33;-0.02;67.78
75372;HTU21D;63956;52.006;5.878;2022-11-20T08:28:07;0.07;67.78
75372;HTU21D;63956;52.006;5.878;2022-11-20T08:30:36;0.15;67.85
75372;HTU21D;63956;52.006;5.878;2022-11-20T08:33:06;0.28;67.55
75372;HTU21D;63956;52.006;5.878;2022-11-20T08:35:36;0.29;67.75
75372;HTU21D;63956;52.006;5.878;2022-11-20T08:38:08;0.36;67.89
75372;HTU21D;63956;52.006;5.878;2022-11-20T08:40:37;0.45;67.87
75372;HTU21D;63956;52.006;5.878;2022-11-20T08:43:09;0.52;67.91
75372;HTU21D;63956;52.006;5.878;2022-11-20T08:45:38;0.58;67.93
75372;HTU21D;63956;52.006;5.878;2022-11-20T08:48:07;0.63;68.08
75372;HTU21D;63956;52.006;5.878;2022-11-20T08:50:36;0.73;68.00
75372;HTU21D;63956;52.006;5.878;2022-11-20T08:53:05;0.80;67.95
75372;HTU21D;63956;52.006;5.878;2022-11-20T08:55:35;0.88;67.91
75372;HTU21D;63956;52.006;5.878;2022-11-20T08:58:06;0.96;67.87
75372;HTU21D;63956;52.006;5.878;2022-11-20T09:00:37;1.04;67.86
75372;HTU21D;63956;52.006;5.878;2022-11-20T09:03:06;1.10;67.79
75372;HTU21D;63956;52.006;5.878;2022-11-20T09:05:36;1.17;67.82
75372;HTU21D;63956;52.006;5.878;2022-11-20T09:08:05;1.24;67.86
75372;HTU21D;63956;52.006;5.878;2022-11-20T09:10:34;1.32;67.78
75372;HTU21D;63956;52.006;5.878;2022-11-20T09:13:05;1.42;67.70
75372;HTU21D;63956;52.006;5.878;2022-11-20T09:15:37;1.50;67.62
75372;HTU21D;63956;52.006;5.878;2022-11-20T09:18:06;1.53;67.55
75372;HTU21D;63956;52.006;5.878;2022-11-20T09:20:35;1.58;67.55
75372;HTU21D;63956;52.006;5.878;2022-11-20T09:23:04;1.64;67.48
75372;HTU21D;63956;52.006;5.878;2022-11-20T09:25:33;1.67;67.51
75372;HTU21D;63956;52.006;5.878;2022-11-20T09:28:03;1.76;67.33
75372;HTU21D;63956;52.006;5.878;2022-11-20T09:30:32;1.82;67.31
75372;HTU21D;63956;52.006;5.878;2022-11-20T09:33:04;1.84;67.38
75372;HTU21D;63956;52.006;5.878;2022-11-20T09:35:33;1.91;67.32
75372;HTU21D;63956;52.006;5.878;2022-11-20T09:38:04;1.95;67.28
75372;HTU21D;63956;52.006;5.878;2022-11-20T09:40:35;1.97;67.33
75372;HTU21D;63956;52.006;5.878;2022-11-20T09:43:13;1.99;67.39
75372;HTU21D;63956;52.006;5.878;2022-11-20T09:45:53;2.03;67.42
75372;HTU21D;63956;52.006;5.878;2022-11-20T09:48:36;2.07;67.43
75372;HTU21D;63956;52.006;5.878;2022-11-20T09:51:13;2.10;67.43
75372;HTU21D;63956;52.006;5.878;2022-11-20T09:53:46;2.23;67.19
75372;HTU21D;63956;52.006;5.878;2022-11-20T09:56:19;2.22;67.07
75372;HTU21D;63956;52.006;5.878;2022-11-20T09:58:51;2.25;67.18
75372;HTU21D;63956;52.006;5.878;2022-11-20T10:01:24;2.30;67.17
75372;HTU21D;63956;52.006;5.878;2022-11-20T10:04:01;2.38;67.23
75372;HTU21D;63956;52.006;5.878;2022-11-20T10:06:32;2.45;67.09
75372;HTU21D;63956;52.006;5.878;2022-11-20T10:09:13;2.53;67.01
75372;HTU21D;63956;52.006;5.878;2022-11-20T10:11:48;2.62;66.89
75372;HTU21D;63956;52.006;5.878;2022-11-20T10:14:28;2.69;66.85
75372;HTU21D;63956;52.006;5.878;2022-11-20T10:17:03;2.74;66.78
75372;HTU21D;63956;52.006;5.878;2022-11-20T10:19:47;2.85;66.71
75372;HTU21D;63956;52.006;5.878;2022-11-20T10:22:29;2.90;66.69
75372;HTU21D;63956;52.006;5.878;2022-11-20T10:25:05;2.98;66.69
75372;HTU21D;63956;52.006;5.878;2022-11-20T10:30:42;3.13;66.62
75372;HTU21D;63956;52.006;5.878;2022-11-20T10:33:16;3.23;66.68
75372;HTU21D;63956;52.006;5.878;2022-11-20T10:35:52;3.34;66.59
75372;HTU21D;63956;52.006;5.878;2022-11-20T10:38:25;3.45;66.44
75372;HTU21D;63956;52.006;5.878;2022-11-20T10:40:58;3.54;66.36
75372;HTU21D;63956;52.006;5.878;2022-11-20T10:43:52;3.63;66.33
75372;HTU21D;63956;52.006;5.878;2022-11-20T10:46:23;3.70;66.32
75372;HTU21D;63956;52.006;5.878;2022-11-20T10:48:54;3.75;66.30
75372;HTU21D;63956;52.006;5.878;2022-11-20T10:51:32;3.79;66.48
75372;HTU21D;63956;52.006;5.878;2022-11-20T10:54:12;3.82;66.55
75372;HTU21D;63956;52.006;5.878;2022-11-20T10:56:48;3.84;66.56
75372;HTU21D;63956;52.006;5.878;2022-11-20T10:59:41;3.82;66.75
75372;HTU21D;63956;52.006;5.878;2022-11-20T11:02:18;3.80;66.78
75372;HTU21D;63956;52.006;5.878;2022-11-20T11:04:50;3.79;66.85
75372;HTU21D;63956;52.006;5.878;2022-11-20T11:07:24;3.83;66.98
75372;HTU21D;63956;52.006;5.878;2022-11-20T11:09:56;3.85;66.97
75372;HTU21D;63956;52.006;5.878;2022-11-20T11:12:27;3.90;66.85
75372;HTU21D;63956;52.006;5.878;2022-11-20T11:14:57;3.93;66.94
75372;HTU21D;63956;52.006;5.878;2022-11-20T11:17:28;4.01;66.75
75372;HTU21D;63956;52.006;5.878;2022-11-20T11:20:03;4.08;66.78
75372;HTU21D;63956;52.006;5.878;2022-11-20T11:22:43;4.12;66.75
75372;HTU21D;63956;52.006;5.878;2022-11-20T11:25:22;4.16;66.65
75372;HTU21D;63956;52.006;5.878;2022-11-20T11:27:53;4.20;66.52
75372;HTU21D;63956;52.006;5.878;2022-11-20T11:30:24;4.22;66.56
75372;HTU21D;63956;52.006;5.878;2022-11-20T11:33:05;4.33;66.55
75372;HTU21D;63956;52.006;5.878;2022-11-20T11:35:44;4.38;66.52
75372;HTU21D;63956;52.006;5.878;2022-11-20T11:38:21;4.43;66.46
75372;HTU21D;63956;52.006;5.878;2022-11-20T11:40:53;4.48;66.42
75372;HTU21D;63956;52.006;5.878;2022-11-20T11:43:24;4.52;66.46
75372;HTU21D;63956;52.006;5.878;2022-11-20T11:46:22;4.62;66.35
75372;HTU21D;63956;52.006;5.878;2022-11-20T11:48:57;4.67;66.39
75372;HTU21D;63956;52.006;5.878;2022-11-20T11:51:32;4.73;66.37
75372;HTU21D;63956;52.006;5.878;2022-11-20T11:54:14;4.76;66.46
75372;HTU21D;63956;52.006;5.878;2022-11-20T11:56:45;4.77;66.56
75372;HTU21D;63956;52.006;5.878;2022-11-20T11:59:24;4.73;66.55
75372;HTU21D;63956;52.006;5.878;2022-11-20T12:01:58;4.73;66.65
75372;HTU21D;63956;52.006;5.878;2022-11-20T12:04:42;4.72;66.81
75372;HTU21D;63956;52.006;5.878;2022-11-20T12:07:20;4.71;66.78
75372;HTU21D;63956;52.006;5.878;2022-11-20T12:09:54;4.72;66.78
75372;HTU21D;63956;52.006;5.878;2022-11-20T12:12:31;4.68;66.85
75372;HTU21D;63956;52.006;5.878;2022-11-20T12:15:02;4.69;66.86
75372;HTU21D;63956;52.006;5.878;2022-11-20T12:17:33;4.71;66.96
75372;HTU21D;63956;52.006;5.878;2022-11-20T12:20:02;4.68;66.91
75372;HTU21D;63956;52.006;5.878;2022-11-20T12:22:35;4.66;66.91
75372;HTU21D;63956;52.006;5.878;2022-11-20T12:25:16;4.64;67.05
75372;HTU21D;63956;52.006;5.878;2022-11-20T12:28:16;4.64;67.23
75372;HTU21D;63956;52.006;5.878;2022-11-20T12:30:49;4.72;66.96
75372;HTU21D;63956;52.006;5.878;2022-11-20T12:36:17;4.66;67.10
75372;HTU21D;63956;52.006;5.878;2022-11-20T12:39:06;4.65;67.20
75372;HTU21D;63956;52.006;5.878;2022-11-20T12:42:10;4.72;67.14
75372;HTU21D;63956;52.006;5.878;2022-11-20T12:48:20;4.78;67.15
75372;HTU21D;63956;52.006;5.878;2022-11-20T12:51:02;4.79;67.20
75372;HTU21D;63956;52.006;5.878;2022-11-20T12:53:41;4.84;67.27
75372;HTU21D;63956;52.006;5.878;2022-11-20T12:56:20;4.88;67.29
75372;HTU21D;63956;52.006;5.878;2022-11-20T12:59:04;4.92;67.25
75372;HTU21D;63956;52.006;5.878;2022-11-20T13:01:42;4.94;67.33
75372;HTU21D;63956;52.006;5.878;2022-11-20T13:04:26;4.92;67.41
75372;HTU21D;63956;52.006;5.878;2022-11-20T13:07:01;4.91;67.50
75372;HTU21D;63956;52.006;5.878;2022-11-20T13:09:32;4.89;67.60
75372;HTU21D;63956;52.006;5.878;2022-11-20T13:12:06;4.88;67.80
75372;HTU21D;63956;52.006;5.878;2022-11-20T13:14:43;4.88;67.91
75372;HTU21D;63956;52.006;5.878;2022-11-20T13:17:19;4.86;68.11
75372;HTU21D;63956;52.006;5.878;2022-11-20T13:19:53;4.87;68.04
75372;HTU21D;63956;52.006;5.878;2022-11-20T13:22:25;4.90;68.01
75372;HTU21D;63956;52.006;5.878;2022-11-20T13:24:54;4.89;68.12
75372;HTU21D;63956;52.006;5.878;2022-11-20T13:27:24;4.90;68.19
75372;HTU21D;63956;52.006;5.878;2022-11-20T13:30:13;4.88;68.29
75372;HTU21D;63956;52.006;5.878;2022-11-20T13:32:54;4.90;68.36
75372;HTU21D;63956;52.006;5.878;2022-11-20T13:35:28;4.93;68.49
75372;HTU21D;63956;52.006;5.878;2022-11-20T13:38:15;4.94;68.36
75372;HTU21D;63956;52.006;5.878;2022-11-20T13:40:52;4.94;68.64
75372;HTU21D;63956;52.006;5.878;2022-11-20T13:43:27;4.93;68.68
75372;HTU21D;63956;52.006;5.878;2022-11-20T13:46:01;4.95;68.71
75372;HTU21D;63956;52.006;5.878;2022-11-20T13:48:32;4.94;68.78
75372;HTU21D;63956;52.006;5.878;2022-11-20T13:51:20;4.96;68.87
75372;HTU21D;63956;52.006;5.878;2022-11-20T13:54:14;5.00;68.90
75372;HTU21D;63956;52.006;5.878;2022-11-20T13:57:01;5.00;68.98
75372;HTU21D;63956;52.006;5.878;2022-11-20T13:59:43;4.96;69.18
75372;HTU21D;63956;52.006;5.878;2022-11-20T14:02:17;5.03;68.78
75372;HTU21D;63956;52.006;5.878;2022-11-20T14:04:49;4.93;69.29
75372;HTU21D;63956;52.006;5.878;2022-11-20T14:07:23;4.92;69.47
75372;HTU21D;63956;52.006;5.878;2022-11-20T14:09:54;4.94;69.43
75372;HTU21D;63956;52.006;5.878;2022-11-20T14:12:29;4.92;69.53
75372;HTU21D;63956;52.006;5.878;2022-11-20T14:14:58;4.95;69.56
75372;HTU21D;63956;52.006;5.878;2022-11-20T14:17:33;4.97;69.58
75372;HTU21D;63956;52.006;5.878;2022-11-20T14:20:06;4.95;69.66
75372;HTU21D;63956;52.006;5.878;2022-11-20T14:22:36;4.97;69.72
75372;HTU21D;63956;52.006;5.878;2022-11-20T14:25:17;4.95;69.81
75372;HTU21D;63956;52.006;5.878;2022-11-20T14:27:51;4.92;69.88
75372;HTU21D;63956;52.006;5.878;2022-11-20T14:30:23;4.92;69.90
75372;HTU21D;63956;52.006;5.878;2022-11-20T14:32:57;4.91;70.01
75372;HTU21D;63956;52.006;5.878;2022-11-20T14:35:30;4.93;70.06
75372;HTU21D;63956;52.006;5.878;2022-11-20T14:38:01;4.93;70.03
75372;HTU21D;63956;52.006;5.878;2022-11-20T14:40:32;4.94;70.00
75372;HTU21D;63956;52.006;5.878;2022-11-20T14:43:14;4.97;69.96
75372;HTU21D;63956;52.006;5.878;2022-11-20T14:45:47;4.95;70.17
75372;HTU21D;63956;52.006;5.878;2022-11-20T14:48:23;4.93;70.26
75372;HTU21D;63956;52.006;5.878;2022-11-20T14:50:53;4.89;70.51
75372;HTU21D;63956;52.006;5.878;2022-11-20T14:53:23;4.86;70.58
75372;HTU21D;63956;52.006;5.878;2022-11-20T14:55:57;4.86;70.64
75372;HTU21D;63956;52.006;5.878;2022-11-20T14:58:28;4.86;70.66
75372;HTU21D;63956;52.006;5.878;2022-11-20T15:00:59;4.83;70.78
75372;HTU21D;63956;52.006;5.878;2022-11-20T15:03:36;4.83;70.79
75372;HTU21D;63956;52.006;5.878;2022-11-20T15:06:07;4.82;71.01
75372;HTU21D;63956;52.006;5.878;2022-11-20T15:08:37;4.81;71.09
75372;HTU21D;63956;52.006;5.878;2022-11-20T15:11:16;4.83;71.07
75372;HTU21D;63956;52.006;5.878;2022-11-20T15:13:46;4.81;71.38
75372;HTU21D;63956;52.006;5.878;2022-11-20T15:16:18;4.81;71.46
75372;HTU21D;63956;52.006;5.878;2022-11-20T15:18:50;4.81;71.49
75372;HTU21D;63956;52.006;5.878;2022-11-20T15:21:20;4.82;71.58
75372;HTU21D;63956;52.006;5.878;2022-11-20T15:23:49;4.81;71.65
75372;HTU21D;63956;52.006;5.878;2022-11-20T15:26:23;4.81;71.69
75372;HTU21D;63956;52.006;5.878;2022-11-20T15:28:56;4.84;71.72
75372;HTU21D;63956;52.006;5.878;2022-11-20T15:31:25;4.84;71.74
75372;HTU21D;63956;52.006;5.878;2022-11-20T15:33:57;4.92;71.22
75372;HTU21D;63956;52.006;5.878;2022-11-20T15:36:26;4.87;71.62
75372;HTU21D;63956;52.006;5.878;2022-11-20T15:38:55;4.86;71.71
75372;HTU21D;63956;52.006;5.878;2022-11-20T15:41:24;4.86;71.86
75372;HTU21D;63956;52.006;5.878;2022-11-20T15:43:53;4.87;71.93
75372;HTU21D;63956;52.006;5.878;2022-11-20T15:46:25;4.88;71.99
75372;HTU21D;63956;52.006;5.878;2022-11-20T15:48:59;4.88;72.05
75372;HTU21D;63956;52.006;5.878;2022-11-20T15:51:30;4.84;72.19
75372;HTU21D;63956;52.006;5.878;2022-11-20T15:54:00;4.86;72.22
75372;HTU21D;63956;52.006;5.878;2022-11-20T15:56:29;4.87;72.42
75372;HTU21D;63956;52.006;5.878;2022-11-20T15:58:59;4.91;72.33
75372;HTU21D;63956;52.006;5.878;2022-11-20T16:01:28;4.92;72.26
75372;HTU21D;63956;52.006;5.878;2022-11-20T16:04:00;4.92;72.29
75372;HTU21D;63956;52.006;5.878;2022-11-20T16:06:30;4.91;72.41